Time;durP1;ratioP1;P1;durP2;ratioP2;P2;SDS_P1;SDS_P2;PMS_P1;PMS_P2;Temp;Humidity;BMP_temperature;BMP_pressure;BME280_temperature;BME280_humidity;BME280_pressure;Samples;Min_cycle;Max_cycle;Signal;HPM_P1;HPM_P2
2020/12/28 00:01:57;;;;;;;0.40;0.20;;;;;;;1.59;56.33;97673.47;5008458;28;20490;-70
2020/12/28 00:04:23;;;;;;;0.55;0.20;;;;;;;0.99;57.89;97661.16;5005132;28;20403;-70
2020/12/28 00:06:49;;;;;;;0.55;0.20;;;;;;;1.08;57.44;97660.66;4988875;28;20037;-70
2020/12/28 00:09:14;;;;;;;0.90;0.40;;;;;;;1.30;56.94;97652.66;5005754;28;20054;-70
2020/12/28 00:11:40;;;;;;;0.65;0.22;;;;;;;0.89;58.58;97638.50;5004634;28;20518;-69
2020/12/28 00:14:06;;;;;;;0.50;0.20;;;;;;;1.21;57.68;97623.09;4991393;28;20057;-69
2020/12/28 00:16:32;;;;;;;0.50;0.30;;;;;;;1.26;57.26;97618.56;5006964;28;20034;-70
2020/12/28 00:18:58;;;;;;;0.77;0.32;;;;;;;1.54;56.61;97621.41;5005394;28;20032;-69
2020/12/28 00:21:23;;;;;;;0.68;0.38;;;;;;;1.17;57.75;97620.78;4992268;28;20042;-70
2020/12/28 00:23:49;;;;;;;1.02;0.30;;;;;;;1.48;56.80;97631.13;5004908;28;20491;-70
2020/12/28 00:26:15;;;;;;;1.00;0.50;;;;;;;1.48;56.70;97630.28;5007608;28;20036;-70
2020/12/28 00:28:40;;;;;;;0.90;0.47;;;;;;;1.75;56.52;97634.84;5006573;28;20026;-70
2020/12/28 00:31:08;;;;;;;0.50;0.30;;;;;;;1.74;56.22;97644.31;5005826;28;20130;-70
2020/12/28 00:33:34;;;;;;;0.90;0.40;;;;;;;1.76;55.98;97642.47;5005764;28;20038;-70
2020/12/28 00:36:00;;;;;;;1.10;0.47;;;;;;;1.53;56.72;97654.03;5006535;28;20119;-70
2020/12/28 00:38:25;;;;;;;0.93;0.50;;;;;;;1.70;56.28;97653.09;5024603;28;20030;-70
2020/12/28 00:40:51;;;;;;;1.63;0.73;;;;;;;1.58;56.93;97646.06;5008299;28;20447;-70
2020/12/28 00:43:16;;;;;;;0.88;0.70;;;;;;;1.41;57.39;97658.09;5005820;28;20038;-70
2020/12/28 00:45:42;;;;;;;0.93;0.55;;;;;;;1.79;56.32;97654.34;5006821;28;20694;-70
2020/12/28 00:48:07;;;;;;;1.27;0.95;;;;;;;1.83;55.97;97648.13;5004730;28;20034;-70
2020/12/28 00:50:33;;;;;;;0.77;0.52;;;;;;;1.86;55.90;97643.63;5003495;28;20568;-70
2020/12/28 00:52:59;;;;;;;1.25;0.73;;;;;;;1.35;57.19;97639.53;5004539;28;20041;-70
2020/12/28 00:55:30;;;;;;;1.07;0.63;;;;;;;1.50;57.13;97639.56;5005298;28;20030;-69
2020/12/28 00:57:56;;;;;;;1.17;1.00;;;;;;;1.68;56.54;97644.63;5023731;28;20288;-70
2020/12/28 01:00:21;;;;;;;1.48;0.93;;;;;;;1.66;56.70;97651.59;5008805;28;20026;-70
2020/12/28 01:02:57;;;;;;;1.50;0.90;;;;;;;1.40;57.55;97656.44;5004252;28;20025;-70
2020/12/28 01:05:43;;;;;;;1.75;0.95;;;;;;;1.54;57.13;97658.25;5005496;28;20042;-69
2020/12/28 01:08:09;;;;;;;1.58;1.02;;;;;;;1.77;56.48;97663.91;5021859;28;20403;-69
2020/12/28 01:10:35;;;;;;;1.13;0.77;;;;;;;1.93;55.97;97662.16;5007261;28;20038;-70
2020/12/28 01:13:06;;;;;;;1.55;0.73;;;;;;;0.95;58.30;97657.94;5003710;28;20040;-70
2020/12/28 01:15:33;;;;;;;1.55;0.90;;;;;;;2.01;55.86;97659.97;5003906;28;20037;-70
2020/12/28 01:17:58;;;;;;;1.63;1.00;;;;;;;1.96;55.89;97658.56;5004111;28;20045;-70
2020/12/28 01:20:41;;;;;;;;;;;;;;;1.72;56.44;97659.84;4995463;28;20040;-70
2020/12/28 01:23:10;;;;;;;1.70;1.08;;;;;;;2.12;55.59;97659.38;5003472;28;19979;-70
2020/12/28 01:25:50;;;;;;;1.48;1.23;;;;;;;1.72;56.93;97651.28;5006043;28;20037;-70
2020/12/28 01:28:16;;;;;;;1.88;1.15;;;;;;;1.92;56.33;97652.75;5005407;28;20064;-70
2020/12/28 01:30:41;;;;;;;1.50;1.08;;;;;;;2.07;56.04;97648.50;5005715;28;20037;-70
2020/12/28 01:33:27;;;;;;;2.55;1.42;;;;;;;2.12;55.92;97646.47;5003537;28;20088;-69
2020/12/28 01:35:57;;;;;;;2.22;1.75;;;;;;;2.03;56.32;97658.13;4991571;28;20037;-70
2020/12/28 01:38:23;;;;;;;2.30;1.65;;;;;;;2.06;56.01;97652.78;5006169;28;20422;-70
2020/12/28 01:40:49;;;;;;;2.08;1.67;;;;;;;2.09;56.06;97660.38;5003897;28;20034;-70
2020/12/28 01:43:34;;;;;;;1.95;1.67;;;;;;;1.92;56.59;97661.31;5008486;28;20035;-70
2020/12/28 01:46:02;;;;;;;2.58;1.75;;;;;;;2.24;55.89;97656.09;4986438;28;20034;-70
2020/12/28 01:48:34;;;;;;;2.63;1.90;;;;;;;1.94;56.88;97664.63;5002349;28;20030;-70
2020/12/28 01:51:00;;;;;;;2.47;2.15;;;;;;;2.02;56.78;97659.06;4986535;28;20042;-70
2020/12/28 01:53:27;;;;;;;2.88;1.63;;;;;;;2.16;56.23;97654.88;5002364;28;20031;-70
2020/12/28 01:56:02;;;;;;;2.70;2.20;;;;;;;1.91;57.15;97646.78;5013343;28;20034;-70
2020/12/28 01:58:30;;;;;;;4.22;2.53;;;;;;;1.79;57.18;97650.03;4989985;28;20025;-70
2020/12/28 02:00:57;;;;;;;2.95;2.40;;;;;;;2.09;56.49;97650.06;5018388;28;20402;-70
2020/12/28 02:03:25;;;;;;;2.38;1.90;;;;;;;2.04;56.78;97656.38;4987750;28;20026;-70
2020/12/28 02:06:07;;;;;;;2.95;2.65;;;;;;;2.12;56.49;97649.06;5003351;28;20030;-70
2020/12/28 02:08:32;;;;;;;3.78;2.78;;;;;;;2.21;56.44;97663.16;5004055;28;20361;-69
2020/12/28 02:11:00;;;;;;;2.75;2.30;;;;;;;2.27;56.18;97671.38;4985553;28;20041;-69
2020/12/28 02:13:26;;;;;;;3.47;2.90;;;;;;;2.27;56.20;97675.72;5005340;28;20042;-70
2020/12/28 02:16:11;;;;;;;4.30;3.13;;;;;;;2.32;56.35;97689.97;5003469;28;20030;-69
2020/12/28 02:18:46;;;;;;;3.53;2.60;;;;;;;2.45;55.90;97684.13;5003923;28;20034;-70
2020/12/28 02:21:21;;;;;;;5.30;3.78;;;;;;;2.14;57.15;97696.19;5004717;28;20037;-70
2020/12/28 02:23:46;;;;;;;3.30;2.72;;;;;;;2.34;56.41;97685.56;5001621;28;20026;-70
2020/12/28 02:26:14;;;;;;;6.47;4.35;;;;;;;0.94;60.10;97688.88;5019544;28;20026;-69
2020/12/28 02:28:40;;;;;;;4.78;3.60;;;;;;;2.16;57.32;97683.22;5004285;28;20498;-70
2020/12/28 02:31:05;;;;;;;4.20;3.33;;;;;;;2.24;57.16;97684.44;5008830;28;20040;-70
2020/12/28 02:33:45;;;;;;;6.10;4.35;;;;;;;2.33;57.10;97676.19;5001045;28;20117;-70
2020/12/28 02:36:19;;;;;;;6.13;3.83;;;;;;;2.16;57.54;97681.47;5004439;28;20030;-70
2020/12/28 02:38:45;;;;;;;6.47;4.45;;;;;;;2.12;57.36;97674.81;5021458;28;20034;-71
2020/12/28 02:41:11;;;;;;;8.27;5.88;;;;;;;2.27;57.14;97668.81;5003372;28;20026;-70
2020/12/28 02:43:55;;;;;;;7.10;5.18;;;;;;;2.34;56.98;97670.09;5016681;28;20044;-70
2020/12/28 02:46:39;;;;;;;8.35;4.88;;;;;;;2.67;56.02;97666.50;5002733;28;20057;-69
2020/12/28 02:49:23;;;;;;;7.63;4.78;;;;;;;2.51;56.74;97660.56;5018992;28;20204;-70
2020/12/28 02:52:07;;;;;;;7.00;5.05;;;;;;;2.54;56.84;97660.41;5000206;28;20048;-70
2020/12/28 02:54:51;;;;;;;6.55;4.85;;;;;;;2.39;56.87;97658.72;5003805;28;20041;-70
2020/12/28 02:57:35;;;;;;;9.13;5.63;;;;;;;2.62;56.52;97647.88;5005932;28;20112;-69
2020/12/28 03:00:19;;;;;;;10.27;6.03;;;;;;;2.81;56.23;97657.94;5005175;28;20066;-70
2020/12/28 03:03:03;;;;;;;8.38;5.63;;;;;;;2.88;56.02;97653.25;5006111;28;20052;-70
2020/12/28 03:05:47;;;;;;;7.45;5.60;;;;;;;2.76;56.23;97662.56;5007023;28;20530;-69
2020/12/28 03:08:31;;;;;;;8.27;4.82;;;;;;;2.77;56.62;97661.63;5006261;28;20100;-70
2020/12/28 03:11:15;;;;;;;10.88;7.05;;;;;;;2.75;56.57;97653.97;5021994;28;20521;-70
2020/12/28 03:13:59;;;;;;;10.48;6.97;;;;;;;2.89;56.33;97660.06;5003038;28;20108;-70
2020/12/28 03:16:43;;;;;;;10.93;6.35;;;;;;;2.74;56.80;97675.53;5009765;28;20053;-70
2020/12/28 03:19:27;;;;;;;9.45;5.85;;;;;;;2.89;56.45;97675.53;5024649;28;20177;-70
2020/12/28 03:22:11;;;;;;;12.23;6.72;;;;;;;3.07;55.75;97677.03;5009464;28;20060;-69
2020/12/28 03:24:59;;;;;;;10.27;6.97;;;;;;;2.75;56.40;97679.75;4988940;28;20124;-70
2020/12/28 03:27:43;;;;;;;9.98;6.15;;;;;;;2.88;56.41;97689.38;5009481;28;20057;-70
2020/12/28 03:30:27;;;;;;;9.52;6.32;;;;;;;3.03;55.97;97698.78;5010524;28;20148;-70
2020/12/28 03:33:13;;;;;;;14.25;6.75;;;;;;;2.98;56.04;97705.97;5006614;28;20431;-70
2020/12/28 03:36:14;;;;;;;10.10;6.20;;;;;;;2.89;56.41;97706.50;5010122;28;20455;-70
2020/12/28 03:38:58;;;;;;;11.05;7.30;;;;;;;2.97;56.05;97705.13;5009432;28;20066;-70
2020/12/28 03:41:43;;;;;;;11.18;7.40;;;;;;;2.96;56.42;97718.13;5009219;28;20057;-70
2020/12/28 03:44:27;;;;;;;13.90;7.60;;;;;;;3.04;56.11;97709.91;5023184;28;20057;-70
2020/12/28 03:47:11;;;;;;;11.23;7.53;;;;;;;2.71;57.16;97714.41;5009186;28;20088;-70
2020/12/28 03:50:11;;;;;;;9.20;6.68;;;;;;;2.97;56.28;97712.03;4995002;28;20500;-70
2020/12/28 03:52:55;;;;;;;9.60;6.53;;;;;;;3.18;55.91;97715.94;5003701;28;20121;-70
2020/12/28 03:55:40;;;;;;;9.93;6.20;;;;;;;3.08;55.99;97722.56;5008974;28;20127;-69
2020/12/28 03:58:24;;;;;;;15.35;7.00;;;;;;;3.21;55.80;97722.66;5008242;28;20049;-70
2020/12/28 04:01:08;;;;;;;13.02;7.53;;;;;;;3.07;56.11;97725.22;5004184;28;20115;-70
2020/12/28 04:03:53;;;;;;;16.13;7.47;;;;;;;3.24;55.65;97727.63;5006733;28;20056;-70
2020/12/28 04:06:37;;;;;;;14.95;8.07;;;;;;;3.21;56.05;97727.00;5008199;28;20128;-70
2020/12/28 04:09:21;;;;;;;12.65;7.93;;;;;;;3.31;55.49;97733.28;5022031;28;20100;-70
2020/12/28 04:12:25;;;;;;;11.73;7.90;;;;;;;3.09;56.34;97734.53;5007191;28;20671;-70
2020/12/28 04:14:51;;;;;;;13.70;8.50;;;;;;;3.07;56.60;97736.38;5011397;28;20036;-70
2020/12/28 04:17:16;;;;;;;14.27;8.80;;;;;;;3.02;56.38;97738.38;5006888;28;20038;-70
2020/12/28 04:19:41;;;;;;;16.52;8.23;;;;;;;3.15;55.89;97734.16;4993992;28;20554;-70
2020/12/28 04:22:07;;;;;;;14.15;8.30;;;;;;;3.07;56.34;97735.53;5012495;28;20034;-70
2020/12/28 04:24:35;;;;;;;14.55;8.43;;;;;;;2.47;58.18;97731.28;5008530;28;20030;-69
2020/12/28 04:27:00;;;;;;;15.00;8.98;;;;;;;2.89;57.01;97737.44;5000594;28;20074;-70
2020/12/28 04:29:26;;;;;;;16.45;8.93;;;;;;;2.90;57.04;97737.38;5028079;28;20476;-70
2020/12/28 04:31:51;;;;;;;13.60;7.70;;;;;;;3.07;56.60;97736.38;5010177;28;20049;-69
2020/12/28 04:34:17;;;;;;;17.27;8.60;;;;;;;3.12;56.61;97731.78;5008509;28;20033;-70
2020/12/28 04:36:42;;;;;;;15.38;8.38;;;;;;;3.05;56.77;97734.81;4993478;28;20129;-70
2020/12/28 04:39:08;;;;;;;14.27;9.02;;;;;;;3.11;56.29;97727.56;5007862;28;20431;-69
2020/12/28 04:41:34;;;;;;;14.32;8.82;;;;;;;3.19;56.26;97730.47;5007948;28;20069;-70
2020/12/28 04:44:00;;;;;;;20.10;9.52;;;;;;;3.13;56.34;97730.84;5007550;28;20120;-70
2020/12/28 04:46:28;;;;;;;12.65;8.15;;;;;;;3.08;56.52;97727.72;5007317;28;20387;-70
2020/12/28 04:48:55;;;;;;;18.85;11.27;;;;;;;3.22;56.39;97728.63;5025801;28;20400;-70
2020/12/28 04:51:24;;;;;;;14.98;9.43;;;;;;;3.22;56.38;97726.06;5007202;28;20084;-70
2020/12/28 04:53:54;;;;;;;16.65;9.18;;;;;;;3.28;56.15;97730.84;5012389;28;20038;-70
2020/12/28 04:56:21;;;;;;;16.27;8.73;;;;;;;3.10;56.49;97723.28;5026471;28;20518;-70
2020/12/28 04:58:47;;;;;;;15.15;8.88;;;;;;;3.15;56.52;97723.00;5023756;28;20044;-70
2020/12/28 05:01:13;;;;;;;16.35;8.48;;;;;;;3.27;56.24;97726.59;5005035;28;20026;-70
2020/12/28 05:03:40;;;;;;;17.90;8.77;;;;;;;3.33;56.01;97718.53;5023063;28;20510;-70
2020/12/28 05:06:07;;;;;;;14.38;8.90;;;;;;;3.38;55.74;97719.06;5007130;28;20040;-70
2020/12/28 05:08:33;;;;;;;16.17;9.02;;;;;;;3.29;55.98;97715.31;4991377;28;20033;-70
2020/12/28 05:11:09;;;;;;;11.43;8.23;;;;;;;3.42;55.82;97720.56;5007022;28;20036;-70
2020/12/28 05:13:35;;;;;;;16.83;8.48;;;;;;;3.41;55.89;97713.75;5006502;28;20049;-70
2020/12/28 05:16:01;;;;;;;13.88;9.30;;;;;;;3.34;56.02;97717.63;5001615;28;20093;-70
2020/12/28 05:18:26;;;;;;;12.85;7.50;;;;;;;3.44;55.56;97728.22;5006100;28;20318;-70
2020/12/28 05:20:52;;;;;;;16.23;8.63;;;;;;;3.46;55.83;97734.94;5005840;28;20041;-70
2020/12/28 05:23:18;;;;;;;18.23;9.73;;;;;;;3.50;55.58;97728.66;5009345;28;20117;-70
2020/12/28 05:25:51;;;;;;;11.30;8.05;;;;;;;3.53;55.64;97730.22;5008233;28;20030;-70
2020/12/28 05:28:24;;;;;;;15.02;8.63;;;;;;;3.44;55.68;97729.03;5007323;28;20861;-70
2020/12/28 05:30:50;;;;;;;12.73;6.95;;;;;;;3.55;55.64;97736.13;5009508;28;20042;-70
2020/12/28 05:33:17;;;;;;;14.15;8.82;;;;;;;3.48;55.61;97730.50;5005457;28;20480;-70
2020/12/28 05:35:43;;;;;;;15.85;9.43;;;;;;;3.45;55.93;97729.84;5005771;28;20038;-70
2020/12/28 05:38:10;;;;;;;13.30;8.05;;;;;;;3.59;55.43;97730.69;5006937;28;20732;-70
2020/12/28 05:40:37;;;;;;;15.68;8.90;;;;;;;3.29;56.28;97740.28;5009183;28;20086;-70
2020/12/28 05:43:04;;;;;;;14.68;8.52;;;;;;;3.50;55.34;97730.44;5006686;28;20037;-70
2020/12/28 05:45:29;;;;;;;17.80;8.35;;;;;;;3.18;56.38;97731.41;5008909;28;20030;-70
2020/12/28 05:47:57;;;;;;;15.65;9.18;;;;;;;3.53;55.41;97727.66;5009263;28;20040;-70
2020/12/28 05:50:25;;;;;;;13.38;7.72;;;;;;;3.42;55.49;97736.03;5010977;28;20033;-70
2020/12/28 05:52:56;;;;;;;14.70;8.68;;;;;;;3.48;55.65;97733.09;5008868;28;20026;-71
2020/12/28 05:55:30;;;;;;;12.75;8.35;;;;;;;3.54;55.40;97742.22;5008491;28;20030;-69
2020/12/28 05:57:58;;;;;;;14.93;8.82;;;;;;;3.37;56.10;97738.09;5009800;28;20041;-70
2020/12/28 06:00:24;;;;;;;14.77;8.75;;;;;;;3.40;55.88;97740.47;5009976;28;20033;-70
2020/12/28 06:02:50;;;;;;;15.00;8.25;;;;;;;3.41;55.98;97734.41;5009530;28;20032;-70
2020/12/28 06:05:18;;;;;;;16.30;9.35;;;;;;;3.30;56.25;97742.78;5010831;28;20096;-70
2020/12/28 06:07:44;;;;;;;19.17;10.82;;;;;;;3.43;55.87;97735.13;5025831;28;20042;-69
2020/12/28 06:10:11;;;;;;;17.40;8.93;;;;;;;3.39;55.94;97746.56;5024839;28;20026;-70
2020/12/28 06:12:38;;;;;;;14.32;8.65;;;;;;;3.39;55.93;97744.81;5007909;28;20508;-69
2020/12/28 06:15:16;;;;;;;16.67;9.32;;;;;;;3.43;55.89;97753.22;5020579;28;20041;-70
2020/12/28 06:17:42;;;;;;;17.42;8.25;;;;;;;3.50;55.52;97748.50;5007776;28;20717;-69
2020/12/28 06:20:08;;;;;;;14.90;9.65;;;;;;;3.72;55.02;97740.28;5016151;28;82856;-70
2020/12/28 06:22:34;;;;;;;15.38;8.80;;;;;;;3.53;55.57;97748.31;5008017;28;20037;-70
2020/12/28 06:25:12;;;;;;;16.23;8.88;;;;;;;3.54;55.81;97749.97;5008922;28;20030;-69
2020/12/28 06:27:40;;;;;;;18.95;9.98;;;;;;;3.55;55.63;97754.22;5009311;28;20584;-69
2020/12/28 06:30:18;;;;;;;18.75;8.88;;;;;;;3.48;55.67;97760.66;5013102;28;20166;-70
2020/12/28 06:32:47;;;;;;;19.13;8.95;;;;;;;3.50;55.71;97764.81;5004804;28;20041;-70
2020/12/28 06:35:14;;;;;;;17.75;9.00;;;;;;;3.39;56.27;97759.47;5023487;28;20075;-69
2020/12/28 06:37:53;;;;;;;18.67;9.20;;;;;;;3.58;55.81;97760.03;5003094;28;20487;-70
2020/12/28 06:40:35;;;;;;;18.00;10.00;;;;;;;3.50;55.95;97764.81;5007546;28;20033;-70
2020/12/28 06:43:17;;;;;;;16.48;8.30;;;;;;;3.63;55.58;97771.81;5007586;28;20030;-70
2020/12/28 06:45:48;;;;;;;15.95;8.82;;;;;;;3.62;55.80;97763.25;5007612;28;20045;-70
2020/12/28 06:48:20;;;;;;;15.48;8.38;;;;;;;3.63;55.72;97771.81;5019695;28;20038;-70
2020/12/28 06:50:46;;;;;;;16.52;8.52;;;;;;;3.59;55.67;97764.25;5009014;28;20038;-70
2020/12/28 06:53:12;;;;;;;15.98;8.90;;;;;;;3.70;55.79;97767.94;5007297;28;20434;-70
2020/12/28 06:55:37;;;;;;;15.65;8.38;;;;;;;3.72;55.69;97769.50;5009598;28;20476;-70
2020/12/28 06:58:03;;;;;;;13.90;8.77;;;;;;;3.79;55.61;97781.13;5023882;28;20050;-70
2020/12/28 07:00:28;;;;;;;15.23;8.07;;;;;;;3.78;55.66;97781.22;5005939;28;20033;-70
2020/12/28 07:02:55;;;;;;;14.93;7.93;;;;;;;3.70;55.65;97780.88;5007040;28;20042;-69
2020/12/28 07:05:25;;;;;;;17.67;8.52;;;;;;;3.77;55.46;97785.56;5007395;28;20037;-71
2020/12/28 07:07:52;;;;;;;13.10;7.95;;;;;;;3.75;55.67;97787.41;5005826;28;20054;-69
2020/12/28 07:10:23;;;;;;;17.88;9.20;;;;;;;3.71;55.34;97787.69;5007909;28;20096;-70
2020/12/28 07:12:49;;;;;;;17.30;8.65;;;;;;;3.85;54.97;97790.25;5007967;28;20026;-70
2020/12/28 07:15:17;;;;;;;15.27;8.07;;;;;;;3.76;55.44;97780.47;5008311;28;20064;-69
2020/12/28 07:17:43;;;;;;;14.02;8.32;;;;;;;3.73;55.23;97780.66;5021381;28;20048;-71
2020/12/28 07:20:13;;;;;;;14.88;8.63;;;;;;;3.75;55.48;97779.66;5008744;28;20042;-71
2020/12/28 07:22:43;;;;;;;15.27;8.02;;;;;;;3.66;55.72;97777.63;5007326;28;20104;-70
2020/12/28 07:25:12;;;;;;;18.48;8.13;;;;;;;3.70;55.48;97786.84;4994887;28;20113;-69
2020/12/28 07:27:42;;;;;;;13.57;8.30;;;;;;;3.55;55.53;97791.19;5008063;28;20038;-69
2020/12/28 07:30:10;;;;;;;13.95;7.97;;;;;;;3.66;55.41;97805.22;5007648;28;20046;-70
2020/12/28 07:32:36;;;;;;;14.43;7.43;;;;;;;3.57;55.80;97801.44;5002543;28;20057;-70
2020/12/28 07:35:02;;;;;;;13.48;7.50;;;;;;;3.53;55.57;97803.34;5008676;28;20599;-70
2020/12/28 07:37:29;;;;;;;15.07;7.68;;;;;;;3.58;55.42;97803.06;5003964;28;20045;-69
2020/12/28 07:39:55;;;;;;;11.57;6.78;;;;;;;3.56;55.30;97810.09;5005083;28;20041;-70
2020/12/28 07:42:22;;;;;;;14.52;6.80;;;;;;;3.57;55.38;97802.25;5005008;28;20081;-70
2020/12/28 07:45:00;;;;;;;10.50;5.80;;;;;;;3.29;56.14;97803.09;5007265;28;20087;-70
2020/12/28 07:47:49;;;;;;;9.88;5.85;;;;;;;3.29;56.18;97804.81;5000939;28;20054;-69
2020/12/28 07:50:16;;;;;;;12.13;6.88;;;;;;;3.11;56.46;97814.44;4999493;28;20049;-70
2020/12/28 07:52:53;;;;;;;9.68;5.30;;;;;;;3.09;56.57;97816.28;5000535;28;20041;-69
2020/12/28 07:55:19;;;;;;;11.70;5.45;;;;;;;3.08;56.28;97819.78;5001889;28;20570;-69
2020/12/28 07:58:12;;;;;;;10.27;5.57;;;;;;;3.07;56.29;97824.13;5004905;28;20041;-70
2020/12/28 08:00:44;;;;;;;11.00;5.97;;;;;;;2.93;56.67;97829.22;5025426;23;20042;-69
2020/12/28 08:03:12;;;;;;;13.75;6.78;;;;;;;2.87;56.76;97825.25;5026223;28;20372;-71
2020/12/28 08:05:38;;;;;;;9.85;6.10;;;;;;;3.17;55.64;97821.81;5027820;28;20074;-70
2020/12/28 08:08:04;;;;;;;10.80;5.57;;;;;;;3.29;55.55;97828.91;5028746;28;20444;-70
2020/12/28 08:10:30;;;;;;;10.13;5.07;;;;;;;2.90;56.38;97826.84;5017726;28;20029;-71
2020/12/28 08:12:59;;;;;;;8.80;4.75;;;;;;;2.96;55.64;97836.81;4996527;28;20397;-70
2020/12/28 08:15:33;;;;;;;9.55;5.53;;;;;;;3.15;55.25;97826.25;5012673;28;20033;-70
2020/12/28 08:18:10;;;;;;;10.95;5.43;;;;;;;3.08;55.42;97830.94;5015639;28;20034;-70
2020/12/28 08:20:36;;;;;;;9.02;4.85;;;;;;;3.08;55.19;97824.94;5006132;28;20530;-70
2020/12/28 08:23:03;;;;;;;9.82;4.45;;;;;;;3.00;54.92;97838.28;5011555;28;20097;-70
2020/12/28 08:25:29;;;;;;;7.03;3.72;;;;;;;3.01;55.09;97834.78;5019524;28;20033;-69
2020/12/28 08:27:56;;;;;;;7.20;4.80;;;;;;;3.04;54.48;97844.91;5024221;28;20025;-70
2020/12/28 08:30:25;;;;;;;8.75;4.28;;;;;;;3.07;54.68;97838.75;5015649;28;20037;-69
2020/12/28 08:32:50;;;;;;;7.50;4.60;;;;;;;3.03;54.72;97845.03;5011347;28;20052;-69
2020/12/28 08:35:16;;;;;;;8.20;4.07;;;;;;;3.12;54.39;97847.91;5024665;28;20537;-71
2020/12/28 08:37:49;;;;;;;9.35;4.38;;;;;;;3.11;54.49;97846.25;5009735;28;20045;-72
2020/12/28 08:40:20;;;;;;;7.05;4.10;;;;;;;3.03;54.63;97855.34;5023847;28;20549;-69
2020/12/28 08:42:52;;;;;;;6.63;3.72;;;;;;;2.90;54.95;97853.44;5005415;28;20042;-69
2020/12/28 08:45:23;;;;;;;8.40;4.43;;;;;;;3.05;54.69;97856.91;5017311;28;20041;-69
2020/12/28 08:47:56;;;;;;;5.37;2.50;;;;;;;3.09;54.30;97863.56;5027788;28;20124;-71
2020/12/28 08:50:23;;;;;;;7.25;4.05;;;;;;;3.10;54.55;97854.06;5005895;28;20276;-70
2020/12/28 08:52:50;;;;;;;7.30;3.78;;;;;;;2.84;55.22;97863.28;5033507;28;20061;-69
2020/12/28 08:55:17;;;;;;;8.57;4.53;;;;;;;2.86;54.97;97866.63;5014235;28;20116;-69
2020/12/28 08:57:53;;;;;;;8.43;4.30;;;;;;;2.89;54.96;97869.00;5014343;28;20376;-70
2020/12/28 09:00:19;;;;;;;9.27;4.05;;;;;;;3.19;54.50;97869.03;5018463;28;20419;-69
2020/12/28 09:02:53;;;;;;;8.90;4.35;;;;;;;3.11;54.29;97872.06;5028715;28;20468;-69
2020/12/28 09:05:19;;;;;;;7.07;3.67;;;;;;;2.90;54.91;97871.50;5027804;28;20083;-70
2020/12/28 09:07:44;;;;;;;7.57;3.72;;;;;;;3.04;54.50;97872.47;5015134;28;20453;-70
2020/12/28 09:10:10;;;;;;;7.57;4.38;;;;;;;3.03;54.23;97871.66;5006521;28;21202;-70
2020/12/28 09:12:35;;;;;;;8.73;3.67;;;;;;;2.56;54.76;97881.13;5010039;28;20045;-69
2020/12/28 09:15:01;;;;;;;6.25;3.10;;;;;;;2.59;54.40;97880.13;5024606;28;20041;-71
2020/12/28 09:17:27;;;;;;;7.13;3.72;;;;;;;2.54;54.50;97882.97;5010032;28;20049;-70
2020/12/28 09:19:52;;;;;;;9.00;4.60;;;;;;;2.70;54.11;97880.34;5010486;28;20125;-69
2020/12/28 09:22:18;;;;;;;7.30;4.20;;;;;;;2.32;54.73;97885.84;5019636;28;20431;-69
2020/12/28 09:24:43;;;;;;;7.80;3.53;;;;;;;2.71;54.45;97882.03;5011898;28;20097;-70
2020/12/28 09:27:08;;;;;;;7.40;4.28;;;;;;;2.64;54.36;97883.28;5014770;28;20036;-70
2020/12/28 09:29:34;;;;;;;7.97;4.60;;;;;;;2.33;54.99;97887.53;5026562;28;20487;-70
2020/12/28 09:32:00;;;;;;;7.65;3.60;;;;;;;2.68;54.22;97897.66;5018384;28;20430;-70
2020/12/28 09:34:25;;;;;;;7.93;4.03;;;;;;;2.58;54.00;97899.09;4989330;28;20038;-70
2020/12/28 09:37:02;;;;;;;6.55;3.13;;;;;;;2.48;54.39;97897.94;5013298;28;20014;-69
2020/12/28 09:39:28;;;;;;;8.25;4.45;;;;;;;2.00;56.26;97899.59;5032979;28;20042;-70
2020/12/28 09:41:54;;;;;;;8.38;3.83;;;;;;;2.28;54.90;97899.00;5012738;28;20044;-69
2020/12/28 09:44:20;;;;;;;5.95;3.30;;;;;;;2.63;54.21;97901.44;5013406;28;20033;-69
2020/12/28 09:46:46;;;;;;;12.80;3.38;;;;;;;2.60;54.41;97906.72;5012842;28;20529;-69
2020/12/28 09:49:11;;;;;;;9.52;3.88;;;;;;;2.59;54.30;97907.66;5025706;28;20033;-69
2020/12/28 09:51:37;;;;;;;9.07;4.07;;;;;;;2.69;54.26;97896.75;5016367;28;20461;-70
2020/12/28 09:54:02;;;;;;;7.47;3.17;;;;;;;2.76;54.08;97903.25;5017530;28;20088;-70
2020/12/28 09:56:28;;;;;;;8.60;3.70;;;;;;;2.63;54.54;97898.84;5015358;28;20038;-69
2020/12/28 09:58:53;;;;;;;6.28;2.72;;;;;;;2.79;54.31;97902.22;4998208;28;20030;-69
2020/12/28 10:01:19;;;;;;;4.80;3.42;;;;;;;2.72;54.05;97914.63;5016660;28;20025;-70
2020/12/28 10:03:44;;;;;;;9.05;4.05;;;;;;;2.77;54.22;97915.22;5012429;28;20030;-68
2020/12/28 10:06:31;;;;;;;7.53;3.17;;;;;;;2.69;54.48;97909.66;5018148;28;20091;-71
2020/12/28 10:09:00;;;;;;;5.78;2.65;;;;;;;2.21;55.64;97913.94;5012868;28;20061;-69
2020/12/28 10:11:26;;;;;;;10.20;4.10;;;;;;;2.43;54.93;97920.56;5025488;28;20041;-70
2020/12/28 10:13:52;;;;;;;6.75;3.88;;;;;;;2.67;54.36;97919.22;5000866;28;20820;-70
2020/12/28 10:16:25;;;;;;;5.82;3.53;;;;;;;2.72;54.62;97927.53;5003441;28;20030;-69
2020/12/28 10:18:53;;;;;;;8.07;3.67;;;;;;;2.47;55.07;97927.22;5002786;28;20561;-69
2020/12/28 10:21:19;;;;;;;6.57;3.53;;;;;;;2.45;55.04;97934.19;4985424;28;20038;-70
2020/12/28 10:23:45;;;;;;;5.70;2.67;;;;;;;2.46;55.28;97935.84;5006118;28;20491;-70
2020/12/28 10:26:16;;;;;;;9.63;3.45;;;;;;;2.39;55.35;97931.94;5005407;28;20060;-70
2020/12/28 10:28:44;;;;;;;6.30;3.90;;;;;;;2.40;55.34;97941.31;5000623;28;20041;-70
2020/12/28 10:31:13;;;;;;;9.15;3.22;;;;;;;2.44;55.43;97929.94;4999540;28;20114;-70
2020/12/28 10:33:41;;;;;;;7.03;3.85;;;;;;;2.43;55.07;97930.88;5012849;28;20037;-70
2020/12/28 10:36:14;;;;;;;7.50;3.90;;;;;;;2.42;55.54;97924.03;5006967;28;20059;-70
2020/12/28 10:38:40;;;;;;;6.00;3.63;;;;;;;2.49;55.42;97926.22;4983348;28;20539;-71
2020/12/28 10:41:06;;;;;;;7.47;4.10;;;;;;;2.46;55.17;97931.50;4994356;28;20045;-70
2020/12/28 10:43:32;;;;;;;6.85;3.78;;;;;;;2.47;55.63;97927.22;5012792;28;20038;-69
2020/12/28 10:45:58;;;;;;;7.38;3.83;;;;;;;2.56;55.41;97926.72;5018149;28;20069;-70
2020/12/28 10:48:24;;;;;;;6.15;3.88;;;;;;;2.55;55.25;97915.56;5009511;28;20041;-70
2020/12/28 10:50:50;;;;;;;5.40;3.15;;;;;;;2.54;55.45;97920.81;5012418;28;20825;-69
2020/12/28 10:53:16;;;;;;;8.85;3.72;;;;;;;2.46;55.91;97920.38;4996753;28;20798;-70
2020/12/28 10:55:44;;;;;;;7.88;3.75;;;;;;;2.51;55.65;97914.06;5009958;28;20064;-71
2020/12/28 10:58:11;;;;;;;7.28;4.10;;;;;;;2.58;55.74;97919.72;5006726;28;20026;-69
2020/12/28 11:00:37;;;;;;;8.45;3.92;;;;;;;2.67;55.20;97919.22;5003032;28;20061;-69
2020/12/28 11:03:02;;;;;;;8.60;4.05;;;;;;;2.43;55.99;97912.81;5012454;28;20060;-70
2020/12/28 11:05:28;;;;;;;10.30;5.43;;;;;;;2.47;55.56;97916.91;5025070;28;20038;-70
2020/12/28 11:07:54;;;;;;;9.05;5.40;;;;;;;2.41;55.94;97914.66;4995567;28;20084;-70
2020/12/28 11:10:19;;;;;;;7.95;4.18;;;;;;;2.51;55.91;97919.22;5008859;28;20312;-69
2020/12/28 11:12:45;;;;;;;14.27;7.25;;;;;;;2.58;55.77;97917.16;5007315;28;20038;-69
2020/12/28 11:15:14;;;;;;;15.70;6.53;;;;;;;1.85;57.24;97914.97;5021870;28;20842;-69
2020/12/28 11:17:39;;;;;;;10.73;5.43;;;;;;;2.51;55.88;97908.91;5008861;28;20498;-69
2020/12/28 11:20:05;;;;;;;9.43;5.07;;;;;;;2.24;57.11;97906.06;5005496;28;20038;-70
2020/12/28 11:22:30;;;;;;;9.50;5.45;;;;;;;2.26;57.14;97905.97;5009173;28;20435;-69
2020/12/28 11:24:56;;;;;;;12.88;6.72;;;;;;;2.77;56.07;97906.66;4994316;28;20552;-70
2020/12/28 11:27:22;;;;;;;9.35;5.90;;;;;;;2.76;55.86;97908.41;5003739;28;20036;-70
2020/12/28 11:29:47;;;;;;;12.55;6.43;;;;;;;2.75;55.78;97914.47;5002783;28;20381;-69
2020/12/28 11:32:12;;;;;;;20.75;7.03;;;;;;;2.79;55.48;97916.88;5003632;28;20084;-70
2020/12/28 11:34:38;;;;;;;10.25;4.70;;;;;;;2.91;55.54;97914.47;5009781;28;20163;-70
2020/12/28 11:37:05;;;;;;;9.25;5.07;;;;;;;3.01;55.35;97912.19;4992056;28;20034;-70
2020/12/28 11:39:30;;;;;;;9.73;5.65;;;;;;;3.07;55.66;97906.69;5012312;28;20038;-70
2020/12/28 11:41:56;;;;;;;12.05;6.13;;;;;;;3.24;55.38;97897.16;5017597;28;20029;-70
2020/12/28 11:44:21;;;;;;;11.10;5.97;;;;;;;3.03;55.36;97894.88;5012030;28;20053;-70
2020/12/28 11:46:47;;;;;;;14.13;5.25;;;;;;;2.88;55.40;97893.97;5013259;28;20598;-70
2020/12/28 11:49:12;;;;;;;11.50;5.80;;;;;;;2.98;56.04;97895.16;5004512;28;20120;-70
2020/12/28 11:51:38;;;;;;;11.38;6.35;;;;;;;3.21;55.66;97897.34;5012807;28;20052;-70
2020/12/28 11:54:04;;;;;;;10.80;6.28;;;;;;;3.29;55.46;97895.16;5015242;28;20506;-70